createdAt,value
2023-04-23T00:00:16.141Z,27.69
2023-04-23T00:01:16.194Z,27.70
2023-04-23T00:02:16.327Z,27.75
2023-04-23T00:03:16.515Z,27.72
2023-04-23T00:04:16.479Z,27.69
2023-04-23T00:05:16.391Z,27.72
2023-04-23T00:06:16.328Z,27.77
2023-04-23T00:07:16.338Z,27.73
2023-04-23T00:08:16.344Z,27.71
2023-04-23T00:09:16.341Z,27.77
2023-04-23T00:10:16.367Z,27.77
2023-04-23T00:11:16.335Z,27.76
2023-04-23T00:12:16.329Z,27.75
2023-04-23T00:13:16.350Z,27.79
2023-04-23T00:14:16.338Z,27.78
2023-04-23T00:15:16.315Z,27.77
2023-04-23T00:16:16.324Z,27.77
2023-04-23T00:17:16.305Z,27.82
2023-04-23T00:18:16.303Z,27.80
2023-04-23T00:19:16.302Z,27.81
2023-04-23T00:20:16.306Z,27.81
2023-04-23T00:21:16.297Z,27.82
2023-04-23T00:22:16.293Z,27.83
2023-04-23T00:23:16.327Z,27.80
2023-04-23T00:24:16.280Z,27.83
2023-04-23T00:25:16.284Z,27.81
2023-04-23T00:26:16.272Z,27.84
2023-04-23T00:27:16.270Z,27.80
2023-04-23T00:28:16.321Z,27.85
2023-04-23T00:29:16.302Z,27.81
2023-04-23T00:30:16.280Z,27.80
2023-04-23T00:31:16.315Z,27.85
2023-04-23T00:32:16.268Z,27.84
2023-04-23T00:33:16.280Z,27.87
2023-04-23T00:34:16.257Z,27.87
2023-04-23T00:35:16.247Z,27.85
2023-04-23T00:36:16.240Z,27.87
2023-04-23T00:37:16.268Z,27.87
2023-04-23T00:38:16.232Z,27.89
2023-04-23T00:39:16.238Z,27.85
2023-04-23T00:40:16.250Z,27.91
2023-04-23T00:41:16.255Z,27.89
2023-04-23T00:42:16.235Z,27.88
2023-04-23T00:43:16.234Z,27.88
2023-04-23T00:44:16.238Z,27.89
2023-04-23T00:45:16.258Z,27.88
2023-04-23T00:46:16.331Z,27.92
2023-04-23T00:47:16.317Z,27.92
2023-04-23T00:48:16.237Z,27.86
2023-04-23T00:49:16.259Z,27.95
2023-04-23T00:50:16.246Z,27.88
2023-04-23T00:51:16.263Z,27.92
2023-04-23T00:52:16.233Z,27.91
2023-04-23T00:53:16.232Z,27.94
2023-04-23T00:54:16.271Z,27.95
2023-04-23T00:55:16.231Z,27.92
2023-04-23T00:56:16.247Z,27.95
2023-04-23T00:57:16.234Z,27.95
2023-04-23T00:58:16.246Z,27.95
2023-04-23T00:59:16.243Z,27.94
2023-04-23T01:00:16.257Z,27.89
2023-04-23T01:01:16.276Z,27.89
2023-04-23T01:02:16.286Z,27.94
2023-04-23T01:03:16.381Z,27.98
2023-04-23T01:04:16.337Z,27.92
2023-04-23T01:05:16.261Z,27.96
2023-04-23T01:06:16.239Z,27.92
2023-04-23T01:07:16.244Z,27.92
2023-04-23T01:08:16.252Z,27.95
2023-04-23T01:09:16.239Z,27.93
2023-04-23T01:10:16.281Z,27.96
2023-04-23T01:11:16.242Z,27.99
2023-04-23T01:12:16.240Z,27.98
2023-04-23T01:13:16.237Z,27.91
2023-04-23T01:14:16.224Z,27.96
2023-04-23T01:15:16.230Z,27.98
2023-04-23T01:16:16.230Z,27.96
2023-04-23T01:17:16.251Z,27.99
2023-04-23T01:18:16.228Z,27.98
2023-04-23T01:19:16.293Z,27.98
2023-04-23T01:20:16.227Z,27.99
2023-04-23T01:21:16.210Z,27.96
2023-04-23T01:22:16.220Z,27.98
2023-04-23T01:23:16.220Z,27.93
2023-04-23T01:24:16.217Z,27.96
2023-04-23T01:25:16.227Z,27.95
2023-04-23T01:26:16.215Z,27.93
2023-04-23T01:27:16.219Z,27.92
2023-04-23T01:28:16.215Z,27.92
2023-04-23T01:29:16.211Z,27.96
2023-04-23T01:30:16.225Z,27.96
2023-04-23T01:31:16.239Z,27.95
2023-04-23T01:32:16.216Z,27.93
2023-04-23T01:33:16.345Z,27.95
2023-04-23T01:34:16.206Z,27.95
2023-04-23T01:35:16.210Z,27.96
2023-04-23T01:36:16.210Z,27.95
2023-04-23T01:37:16.207Z,27.95
2023-04-23T01:38:16.217Z,27.93
2023-04-23T01:39:16.212Z,27.96
2023-04-23T01:40:16.218Z,27.91
2023-04-23T01:41:16.221Z,27.92
2023-04-23T01:42:16.229Z,27.96
2023-04-23T01:43:16.239Z,27.91
2023-04-23T01:44:16.225Z,27.91
2023-04-23T01:45:16.226Z,27.93
2023-04-23T01:46:16.261Z,27.95
2023-04-23T01:47:16.231Z,27.95
2023-04-23T01:48:16.243Z,27.92
2023-04-23T01:49:16.271Z,27.93
2023-04-23T01:50:16.237Z,27.92
2023-04-23T01:51:16.240Z,27.93
2023-04-23T01:52:16.241Z,27.92
2023-04-23T01:53:16.242Z,27.91
2023-04-23T01:54:16.303Z,27.95
2023-04-23T01:55:16.242Z,27.96
2023-04-23T01:56:16.243Z,27.93
2023-04-23T01:57:16.282Z,27.99
2023-04-23T01:58:16.247Z,27.93
2023-04-23T01:59:16.277Z,27.92
2023-04-23T02:00:16.331Z,27.93
2023-04-23T02:01:16.292Z,27.91
2023-04-23T02:02:16.299Z,27.89
2023-04-23T02:03:16.419Z,27.93
2023-04-23T02:04:16.444Z,27.92
2023-04-23T02:05:16.335Z,27.92
2023-04-23T02:06:16.286Z,27.96
2023-04-23T02:07:16.278Z,27.93
2023-04-23T02:08:16.281Z,27.95
2023-04-23T02:09:16.300Z,27.95
2023-04-23T02:10:16.347Z,27.93
2023-04-23T02:11:16.306Z,27.92
2023-04-23T02:12:16.303Z,27.89
2023-04-23T02:13:16.289Z,27.93
2023-04-23T02:14:16.295Z,27.95
2023-04-23T02:15:16.333Z,27.91
2023-04-23T02:16:16.385Z,27.95
2023-04-23T02:17:16.298Z,27.95
2023-04-23T02:18:16.308Z,27.89
2023-04-23T02:19:16.312Z,27.87
2023-04-23T02:20:16.330Z,27.95
2023-04-23T02:21:16.351Z,27.89
2023-04-23T02:22:16.333Z,27.89
2023-04-23T02:23:16.341Z,27.91
2023-04-23T02:24:16.350Z,27.93
2023-04-23T02:25:16.362Z,27.92
2023-04-23T02:26:16.364Z,27.96
2023-04-23T02:27:16.365Z,27.95
2023-04-23T02:28:16.366Z,27.93
2023-04-23T02:29:16.377Z,27.90
2023-04-23T02:30:16.380Z,27.95
2023-04-23T02:31:16.421Z,27.95
2023-04-23T02:32:16.392Z,27.93
2023-04-23T02:33:16.395Z,27.96
2023-04-23T02:34:16.402Z,27.98
2023-04-23T02:35:16.433Z,27.96
2023-04-23T02:36:16.419Z,28.00
2023-04-23T02:37:16.564Z,27.90
2023-04-23T02:38:16.440Z,27.99
2023-04-23T02:39:16.446Z,27.92
2023-04-23T02:40:16.472Z,27.95
2023-04-23T02:41:16.479Z,28.00
2023-04-23T02:42:16.476Z,27.98
2023-04-23T02:43:16.493Z,27.97
2023-04-23T02:44:16.504Z,28.01
2023-04-23T02:45:16.518Z,27.98
2023-04-23T02:46:16.560Z,28.00
2023-04-23T02:47:16.516Z,28.00
2023-04-23T02:48:16.543Z,28.00
2023-04-23T02:49:16.556Z,28.01
2023-04-23T02:50:16.550Z,28.05
2023-04-23T02:51:16.573Z,28.04
2023-04-23T02:52:16.569Z,28.01
2023-04-23T02:53:16.614Z,28.01
2023-04-23T02:54:16.596Z,28.08
2023-04-23T02:55:16.601Z,28.10
2023-04-23T02:56:16.624Z,28.08
2023-04-23T02:57:16.621Z,28.07
2023-04-23T02:58:16.641Z,28.05
2023-04-23T02:59:16.639Z,28.08
2023-04-23T03:00:16.662Z,28.10
2023-04-23T03:01:16.741Z,28.08
2023-04-23T03:02:16.735Z,28.08
2023-04-23T03:03:16.947Z,28.11
2023-04-23T03:04:16.776Z,28.10
2023-04-23T03:05:16.710Z,28.10
2023-04-23T03:06:16.719Z,28.11
2023-04-23T03:07:16.743Z,28.09
2023-04-23T03:08:16.753Z,28.08
2023-04-23T03:09:16.810Z,28.11
2023-04-23T03:10:16.804Z,28.12
2023-04-23T03:11:16.802Z,28.17
2023-04-23T03:12:16.809Z,28.13
2023-04-23T03:13:16.823Z,28.16
2023-04-23T03:14:16.842Z,28.17
2023-04-23T03:15:16.862Z,28.14
2023-04-23T03:16:16.936Z,28.15
2023-04-23T03:17:16.932Z,28.16
2023-04-23T03:18:16.931Z,28.17
2023-04-23T03:19:16.949Z,28.22
2023-04-23T03:20:16.952Z,28.18
2023-04-23T03:21:16.997Z,28.18
2023-04-23T03:22:16.986Z,28.12
2023-04-23T03:23:17.000Z,28.18
2023-04-23T03:24:17.013Z,28.16
2023-04-23T03:25:17.087Z,28.12
2023-04-23T03:26:17.053Z,28.20
2023-04-23T03:27:17.062Z,28.22
2023-04-23T03:28:17.084Z,28.18
2023-04-23T03:29:17.103Z,28.19
2023-04-23T03:30:17.125Z,28.19
2023-04-23T03:31:17.261Z,28.25
2023-04-23T03:32:17.164Z,28.17
2023-04-23T03:33:17.195Z,28.23
2023-04-23T03:34:17.192Z,28.16
2023-04-23T03:35:17.207Z,28.19
2023-04-23T03:36:17.228Z,28.23
2023-04-23T03:37:17.256Z,28.20
2023-04-23T03:38:17.285Z,28.23
2023-04-23T03:39:17.303Z,28.24
2023-04-23T03:40:17.324Z,28.19
2023-04-23T03:41:17.364Z,28.23
2023-04-23T03:42:17.356Z,28.25
2023-04-23T03:43:17.407Z,28.22
2023-04-23T03:44:17.396Z,28.23
2023-04-23T03:45:17.413Z,28.27
2023-04-23T03:46:17.465Z,28.25
2023-04-23T03:47:17.457Z,28.25
2023-04-23T03:48:17.479Z,28.25
2023-04-23T03:49:17.489Z,28.23
2023-04-23T03:50:17.571Z,28.27
2023-04-23T03:51:17.530Z,28.20
2023-04-23T03:52:17.606Z,28.25
2023-04-23T03:53:17.581Z,28.27
2023-04-23T03:54:17.591Z,28.26
2023-04-23T03:55:17.610Z,28.26
2023-04-23T03:56:17.629Z,28.29
2023-04-23T03:57:17.779Z,28.25
2023-04-23T03:58:17.660Z,28.25
2023-04-23T03:59:17.688Z,28.26
2023-04-23T04:00:17.696Z,28.27
2023-04-23T04:01:17.715Z,28.29
2023-04-23T04:02:17.910Z,28.27
2023-04-23T04:03:17.997Z,28.29
2023-04-23T04:04:17.984Z,28.27
2023-04-23T04:05:18.070Z,28.29
2023-04-23T04:06:17.793Z,28.32
2023-04-23T04:07:17.809Z,28.26
2023-04-23T04:08:17.864Z,28.29
2023-04-23T04:09:17.826Z,28.26
2023-04-23T04:10:17.860Z,28.31
2023-04-23T04:11:17.864Z,28.31
2023-04-23T04:12:17.873Z,28.33
2023-04-23T04:13:17.915Z,28.33
2023-04-23T04:14:17.919Z,28.29
2023-04-23T04:15:17.930Z,28.33
2023-04-23T04:16:17.986Z,28.37
2023-04-23T04:17:17.985Z,28.37
2023-04-23T04:18:17.994Z,28.36
2023-04-23T04:19:18.017Z,28.37
2023-04-23T04:20:18.032Z,28.36
2023-04-23T04:21:18.049Z,28.33
2023-04-23T04:22:18.067Z,28.30
2023-04-23T04:23:18.083Z,28.37
2023-04-23T04:24:18.102Z,28.31
2023-04-23T04:25:18.117Z,28.36
2023-04-23T04:26:18.132Z,28.37
2023-04-23T04:27:18.161Z,28.39
2023-04-23T04:28:18.177Z,28.36
2023-04-23T04:29:18.232Z,28.39
2023-04-23T04:30:18.229Z,28.37
2023-04-23T04:31:18.272Z,28.37
2023-04-23T04:32:18.299Z,28.40
2023-04-23T04:33:18.317Z,28.39
2023-04-23T04:34:18.332Z,28.37
2023-04-23T04:35:18.363Z,28.38
2023-04-23T04:36:18.390Z,28.39
2023-04-23T04:37:18.411Z,28.41
2023-04-23T04:38:18.449Z,28.39
2023-04-23T04:39:18.472Z,28.37
2023-04-23T04:40:18.519Z,28.34
2023-04-23T04:41:18.556Z,28.41
2023-04-23T04:42:18.569Z,28.42
2023-04-23T04:43:18.603Z,28.47
2023-04-23T04:44:18.638Z,28.42
2023-04-23T04:45:18.687Z,28.42
2023-04-23T04:46:18.720Z,28.40
2023-04-23T04:47:18.754Z,28.47
2023-04-23T04:48:18.764Z,28.47
2023-04-23T04:49:18.788Z,28.45
2023-04-23T04:50:18.813Z,28.41
2023-04-23T04:51:18.847Z,28.44
2023-04-23T04:52:18.873Z,28.45
2023-04-23T04:53:18.897Z,28.45
2023-04-23T04:54:18.932Z,28.42
2023-04-23T04:55:18.959Z,28.47
2023-04-23T04:56:18.982Z,28.47
2023-04-23T04:57:19.012Z,28.45
2023-04-23T04:58:19.037Z,28.44
2023-04-23T04:59:19.062Z,28.47
2023-04-23T05:00:19.106Z,28.42
2023-04-23T05:01:19.241Z,28.45
2023-04-23T05:02:19.342Z,28.44
2023-04-23T05:03:19.253Z,28.41
2023-04-23T05:04:19.223Z,28.41
2023-04-23T05:05:19.277Z,28.45
2023-04-23T05:06:19.324Z,28.41
2023-04-23T05:07:19.313Z,28.45
2023-04-23T05:08:19.353Z,28.47
2023-04-23T05:09:19.322Z,28.40
2023-04-23T05:10:19.447Z,28.45
2023-04-23T05:11:19.374Z,28.40
2023-04-23T05:12:19.390Z,28.41
2023-04-23T05:13:19.407Z,28.42
2023-04-23T05:14:19.469Z,28.44
2023-04-23T05:15:19.524Z,28.46
2023-04-23T05:16:19.583Z,28.38
2023-04-23T05:17:19.572Z,28.44
2023-04-23T05:18:19.515Z,28.41
2023-04-23T05:19:19.552Z,28.44
2023-04-23T05:20:19.565Z,28.43
2023-04-23T05:21:19.693Z,28.40
2023-04-23T05:22:19.619Z,28.42
2023-04-23T05:23:19.640Z,28.42
2023-04-23T05:24:19.659Z,28.50
2023-04-23T05:25:19.686Z,28.44
2023-04-23T05:26:19.701Z,28.44
2023-04-23T05:27:19.726Z,28.44
2023-04-23T05:28:19.761Z,28.43
2023-04-23T05:29:19.773Z,28.42
2023-04-23T05:30:19.792Z,28.43
2023-04-23T05:31:19.808Z,28.41
2023-04-23T05:32:19.916Z,28.41
2023-04-23T05:33:19.871Z,28.41
2023-04-23T05:34:19.874Z,28.41
2023-04-23T05:35:19.889Z,28.40
2023-04-23T05:36:19.919Z,28.43
2023-04-23T05:37:19.943Z,28.39
2023-04-23T05:38:19.965Z,28.44
2023-04-23T05:39:19.981Z,28.43
2023-04-23T05:40:19.992Z,28.40
2023-04-23T05:41:20.029Z,28.40
2023-04-23T05:42:20.049Z,28.39
2023-04-23T05:43:20.078Z,28.43
2023-04-23T05:44:20.103Z,28.40
2023-04-23T05:45:20.122Z,28.39
2023-04-23T05:46:20.152Z,28.37
2023-04-23T05:47:20.247Z,28.37
2023-04-23T05:48:20.159Z,28.40
2023-04-23T05:49:20.207Z,28.39
2023-04-23T05:50:20.216Z,28.36
2023-04-23T05:51:20.245Z,28.37
2023-04-23T05:52:20.249Z,28.40
2023-04-23T05:53:20.271Z,28.38
2023-04-23T05:54:20.295Z,28.39
2023-04-23T05:55:20.292Z,28.45
2023-04-23T05:56:20.306Z,28.42
2023-04-23T05:57:20.330Z,28.42
2023-04-23T05:58:20.346Z,28.45
2023-04-23T05:59:20.368Z,28.37
2023-04-23T06:00:20.384Z,28.45
2023-04-23T06:01:20.399Z,28.45
2023-04-23T06:02:23.237Z,28.45
2023-04-23T06:03:20.788Z,28.46
2023-04-23T06:04:20.813Z,28.46
2023-04-23T06:05:20.855Z,28.41
2023-04-23T06:06:20.397Z,28.45
2023-04-23T06:07:20.380Z,28.43
2023-04-23T06:08:20.387Z,28.50
2023-04-23T06:09:20.366Z,28.49
2023-04-23T06:10:20.367Z,28.49
2023-04-23T06:11:20.351Z,28.50
2023-04-23T06:12:20.358Z,28.52
2023-04-23T06:13:20.336Z,28.48
2023-04-23T06:14:20.329Z,28.49
2023-04-23T06:15:20.324Z,28.50
2023-04-23T06:16:20.366Z,28.49
2023-04-23T06:17:20.349Z,28.52
2023-04-23T06:18:20.363Z,28.49
2023-04-23T06:19:20.382Z,28.47
2023-04-23T06:20:20.409Z,28.50
2023-04-23T06:21:20.447Z,28.52
2023-04-23T06:22:20.465Z,28.49
2023-04-23T06:23:20.477Z,28.55
2023-04-23T06:24:20.476Z,28.49
2023-04-23T06:25:20.497Z,28.52
2023-04-23T06:26:20.512Z,28.57
2023-04-23T06:27:20.529Z,28.52
2023-04-23T06:28:20.549Z,28.56
2023-04-23T06:29:20.564Z,28.57
2023-04-23T06:30:20.593Z,28.57
2023-04-23T06:31:20.683Z,28.53
2023-04-23T06:32:20.850Z,28.58
2023-04-23T06:33:20.624Z,28.56
2023-04-23T06:34:20.640Z,28.59
2023-04-23T06:35:20.657Z,28.53
2023-04-23T06:36:20.668Z,28.60
2023-04-23T06:37:20.701Z,28.55
2023-04-23T06:38:20.693Z,28.56
2023-04-23T06:39:20.704Z,28.55
2023-04-23T06:40:20.737Z,28.52
2023-04-23T06:41:20.728Z,28.58
2023-04-23T06:42:20.771Z,28.59
2023-04-23T06:43:20.757Z,28.59
2023-04-23T06:44:20.767Z,28.58
2023-04-23T06:45:20.784Z,28.58
2023-04-23T06:46:20.842Z,28.63
2023-04-23T06:47:20.813Z,28.61
2023-04-23T06:48:20.989Z,28.62
2023-04-23T06:49:20.826Z,28.56
2023-04-23T06:50:20.845Z,28.59
2023-04-23T06:52:19.861Z,28.57
2023-04-23T06:53:20.892Z,28.61
2023-04-23T06:54:20.879Z,28.59
2023-04-23T06:55:20.891Z,28.59
2023-04-23T06:56:20.882Z,28.60
2023-04-23T06:57:20.896Z,28.59
2023-04-23T06:58:20.908Z,28.69
2023-04-23T06:59:20.903Z,28.63
2023-04-23T07:00:20.914Z,28.67
2023-04-23T07:01:21.037Z,28.62
2023-04-23T07:02:20.950Z,28.64
2023-04-23T07:03:20.960Z,28.61
2023-04-23T07:04:21.007Z,28.60
2023-04-23T07:05:20.954Z,28.61
2023-04-23T07:06:20.969Z,28.68
2023-04-23T07:07:20.971Z,28.68
2023-04-23T07:08:20.968Z,28.67
2023-04-23T07:09:21.006Z,28.64
2023-04-23T07:10:20.985Z,28.60
2023-04-23T07:11:20.987Z,28.63
2023-04-23T07:12:20.967Z,28.64
2023-04-23T07:13:20.982Z,28.60
2023-04-23T07:14:20.977Z,28.66
2023-04-23T07:15:21.013Z,28.66
2023-04-23T07:16:22.276Z,28.61
2023-04-23T07:17:21.008Z,28.63
2023-04-23T07:18:21.014Z,28.66
2023-04-23T07:19:20.974Z,28.64
2023-04-23T07:20:20.988Z,28.60
2023-04-23T07:21:20.966Z,28.64
2023-04-23T07:22:20.958Z,28.67
2023-04-23T07:23:20.953Z,28.67
2023-04-23T07:24:20.955Z,28.68
2023-04-23T07:25:20.961Z,28.63
2023-04-23T07:26:20.947Z,28.66
2023-04-23T07:27:20.956Z,28.70
2023-04-23T07:28:20.953Z,28.67
2023-04-23T07:29:20.951Z,28.67
2023-04-23T07:30:20.961Z,28.70
2023-04-23T07:31:21.041Z,28.70
2023-04-23T07:32:20.983Z,28.63
2023-04-23T07:33:20.936Z,28.73
2023-04-23T07:34:20.929Z,28.68
2023-04-23T07:35:20.937Z,28.71
2023-04-23T07:36:20.926Z,28.74
2023-04-23T07:37:20.924Z,28.70
2023-04-23T07:38:20.944Z,28.68
2023-04-23T07:39:20.904Z,28.73
2023-04-23T07:40:20.898Z,28.70
2023-04-23T07:41:20.936Z,28.66
2023-04-23T07:42:21.183Z,28.73
2023-04-23T07:43:20.908Z,28.71
2023-04-23T07:44:20.888Z,28.73
2023-04-23T07:45:20.893Z,28.70
2023-04-23T07:46:20.919Z,28.66
2023-04-23T07:47:20.932Z,28.69
2023-04-23T07:48:20.883Z,28.69
2023-04-23T07:49:20.877Z,28.66
2023-04-23T07:50:20.882Z,28.66
2023-04-23T07:51:20.877Z,28.71
2023-04-23T07:52:20.966Z,28.70
2023-04-23T07:53:20.878Z,28.72
2023-04-23T07:54:20.871Z,28.65
2023-04-23T07:55:20.881Z,28.71
2023-04-23T07:56:20.897Z,28.70
2023-04-23T07:57:20.948Z,28.72
2023-04-23T07:58:20.925Z,28.73
2023-04-23T07:59:20.939Z,28.74
2023-04-23T08:00:20.944Z,28.73
2023-04-23T08:01:20.999Z,28.73
2023-04-23T08:02:21.018Z,28.68
2023-04-23T08:03:21.262Z,28.72
2023-04-23T08:04:21.215Z,28.74
2023-04-23T08:05:20.999Z,28.70
2023-04-23T08:06:21.018Z,28.72
2023-04-23T08:07:21.037Z,28.76
2023-04-23T08:08:21.055Z,28.71
2023-04-23T08:09:21.073Z,28.72
2023-04-23T08:10:21.091Z,28.72
2023-04-23T08:11:21.102Z,28.69
2023-04-23T08:12:21.141Z,28.74
2023-04-23T08:13:21.211Z,28.75
2023-04-23T08:14:21.181Z,28.71
2023-04-23T08:15:21.186Z,28.74
2023-04-23T08:16:21.228Z,28.72
2023-04-23T08:17:21.220Z,28.74
2023-04-23T08:18:21.207Z,28.68
2023-04-23T08:19:21.215Z,28.64
2023-04-23T08:20:21.245Z,28.75
2023-04-23T08:21:21.219Z,28.72
2023-04-23T08:22:22.249Z,28.72
2023-04-23T08:23:21.234Z,28.69
2023-04-23T08:24:21.249Z,28.75
2023-04-23T08:25:21.264Z,28.71
2023-04-23T08:26:21.282Z,28.68
2023-04-23T08:27:21.305Z,28.72
2023-04-23T08:28:21.295Z,28.72
2023-04-23T08:29:21.324Z,28.72
2023-04-23T08:30:21.316Z,28.75
2023-04-23T08:31:26.510Z,28.69
2023-04-23T08:32:21.455Z,28.74
2023-04-23T08:33:21.303Z,28.75
2023-04-23T08:34:21.278Z,28.75
2023-04-23T08:35:21.296Z,28.72
2023-04-23T08:36:21.262Z,28.74
2023-04-23T08:37:30.241Z,28.71
2023-04-23T08:38:21.236Z,28.74
2023-04-23T08:39:21.234Z,28.68
2023-04-23T08:40:21.221Z,28.75
2023-04-23T08:41:21.235Z,28.75
2023-04-23T08:42:21.227Z,28.65
2023-04-23T08:43:21.228Z,28.72
2023-04-23T08:44:21.202Z,28.71
2023-04-23T08:45:21.210Z,28.71
2023-04-23T08:46:21.219Z,28.77
2023-04-23T08:47:21.261Z,28.77
2023-04-23T08:48:21.170Z,28.71
2023-04-23T08:49:21.157Z,28.71
2023-04-23T08:50:21.155Z,28.74
2023-04-23T08:51:21.145Z,28.73
2023-04-23T08:52:21.137Z,28.71
2023-04-23T08:53:21.159Z,28.72
2023-04-23T08:54:21.124Z,28.70
2023-04-23T08:55:21.166Z,28.72
2023-04-23T08:56:21.198Z,28.67
2023-04-23T08:57:21.210Z,28.67
2023-04-23T08:58:21.180Z,28.68
2023-04-23T08:59:21.221Z,28.70
2023-04-23T09:00:21.275Z,28.70
2023-04-23T09:01:21.193Z,28.71
2023-04-23T09:02:21.532Z,28.75
2023-04-23T09:03:21.273Z,28.68
2023-04-23T09:04:21.122Z,28.72
2023-04-23T09:05:21.124Z,28.68
2023-04-23T09:06:21.045Z,28.70
2023-04-23T09:07:21.061Z,28.72
2023-04-23T09:08:21.036Z,28.76
2023-04-23T09:09:21.030Z,28.70
2023-04-23T09:10:21.033Z,28.68
2023-04-23T09:11:21.017Z,28.70
2023-04-23T09:12:21.015Z,28.68
2023-04-23T09:13:21.005Z,28.70
2023-04-23T09:14:20.994Z,28.73
2023-04-23T09:15:20.977Z,28.71
2023-04-23T09:16:21.021Z,28.68
2023-04-23T09:17:21.078Z,28.73
2023-04-23T09:18:20.970Z,28.70
2023-04-23T09:19:20.966Z,28.73
2023-04-23T09:20:21.046Z,28.73
2023-04-23T09:21:20.947Z,28.69
2023-04-23T09:22:20.937Z,28.67
2023-04-23T09:23:20.924Z,28.70
2023-04-23T09:24:20.917Z,28.67
2023-04-23T09:25:20.917Z,28.72
2023-04-23T09:26:20.924Z,28.72
2023-04-23T09:27:20.895Z,28.68
2023-04-23T09:28:20.891Z,28.72
2023-04-23T09:29:20.882Z,28.73
2023-04-23T09:30:21.015Z,28.72
2023-04-23T09:31:20.870Z,28.67
2023-04-23T09:32:20.937Z,28.72
2023-04-23T09:33:20.878Z,28.67
2023-04-23T09:34:20.855Z,28.67
2023-04-23T09:35:20.966Z,28.73
2023-04-23T09:36:20.838Z,28.70
2023-04-23T09:37:20.829Z,28.68
2023-04-23T09:38:20.845Z,28.65
2023-04-23T09:39:20.807Z,28.68
2023-04-23T09:40:20.926Z,28.62
2023-04-23T09:41:20.793Z,28.68
2023-04-23T09:42:20.789Z,28.69
2023-04-23T09:43:20.790Z,28.67
2023-04-23T09:44:20.774Z,28.69
2023-04-23T09:45:20.764Z,28.65
2023-04-23T09:46:20.788Z,28.68
2023-04-23T09:47:21.683Z,28.60
2023-04-23T09:48:20.795Z,28.68
2023-04-23T09:49:20.761Z,28.62
2023-04-23T09:50:20.730Z,28.67
2023-04-23T09:51:20.732Z,28.68
2023-04-23T09:52:20.722Z,28.63
2023-04-23T09:53:20.708Z,28.62
2023-04-23T09:54:20.724Z,28.66
2023-04-23T09:55:20.699Z,28.68
2023-04-23T09:56:20.688Z,28.62
2023-04-23T09:57:20.734Z,28.63
2023-04-23T09:58:20.672Z,28.59
2023-04-23T09:59:22.951Z,28.58
2023-04-23T10:00:20.936Z,28.65
2023-04-23T10:01:20.684Z,28.60
2023-04-23T10:02:20.776Z,28.64
2023-04-23T10:03:20.714Z,28.62
2023-04-23T10:04:20.762Z,28.62
2023-04-23T10:05:23.679Z,28.60
2023-04-23T10:06:36.848Z,28.61
2023-04-23T10:07:20.738Z,28.61
2023-04-23T10:08:20.590Z,28.60
2023-04-23T10:09:20.587Z,28.67
2023-04-23T10:10:20.591Z,28.60
2023-04-23T10:11:21.198Z,28.60
2023-04-23T10:12:41.039Z,28.57
2023-04-23T10:13:21.484Z,28.58
2023-04-23T10:14:20.550Z,28.57
2023-04-23T10:15:20.542Z,28.58
2023-04-23T10:16:24.312Z,28.61
2023-04-23T10:17:20.658Z,28.60
2023-04-23T10:18:20.535Z,28.61
2023-04-23T10:19:20.516Z,28.60
2023-04-23T10:20:20.508Z,28.60
2023-04-23T10:21:20.596Z,28.56
2023-04-23T10:22:20.635Z,28.60
2023-04-23T10:23:20.513Z,28.58
2023-04-23T10:24:20.484Z,28.64
2023-04-23T10:25:20.471Z,28.54
2023-04-23T10:26:20.468Z,28.60
2023-04-23T10:28:19.458Z,28.58
2023-04-23T10:29:20.452Z,28.63
2023-04-23T10:30:20.437Z,28.58
2023-04-23T10:31:20.475Z,28.60
2023-04-23T10:32:20.476Z,28.60
2023-04-23T10:33:29.393Z,28.60
2023-04-23T10:34:20.511Z,28.60
2023-04-23T10:35:20.412Z,28.60
2023-04-23T10:36:20.398Z,28.63
2023-04-23T10:37:20.417Z,28.61
2023-04-23T10:38:20.387Z,28.59
2023-04-23T10:39:27.436Z,28.56
2023-04-23T10:40:20.381Z,28.60
2023-04-23T10:41:20.795Z,28.57
2023-04-23T10:42:20.357Z,28.57
2023-04-23T10:43:20.353Z,28.59
2023-04-23T10:44:33.038Z,28.57
2023-04-23T10:45:24.261Z,28.59
2023-04-23T10:46:20.348Z,28.64
2023-04-23T10:47:20.360Z,28.56
2023-04-23T10:48:20.325Z,28.56
2023-04-23T10:49:20.311Z,28.59
2023-04-23T10:50:20.313Z,28.60
2023-04-23T10:52:22.369Z,28.59
2023-04-23T10:53:20.308Z,28.62
2023-04-23T10:54:20.332Z,28.60
2023-04-23T10:55:20.280Z,28.56
2023-04-23T10:56:20.266Z,28.60
2023-04-23T10:57:20.280Z,28.62
2023-04-23T10:58:20.306Z,28.62
2023-04-23T10:59:20.388Z,28.59
2023-04-23T11:00:20.417Z,28.60
2023-04-23T11:01:20.480Z,28.63
2023-04-23T11:02:20.674Z,28.63
2023-04-23T11:03:20.655Z,28.64
2023-04-23T11:04:20.667Z,28.59
2023-04-23T11:05:20.635Z,28.62
2023-04-23T11:06:20.681Z,28.60
2023-04-23T11:07:20.730Z,28.59
2023-04-23T11:08:20.774Z,28.62
2023-04-23T11:09:20.991Z,28.66
2023-04-23T11:10:20.892Z,28.64
2023-04-23T11:11:20.932Z,28.66
2023-04-23T11:12:20.979Z,28.64
2023-04-23T11:13:21.022Z,28.64
2023-04-23T11:14:21.067Z,28.68
2023-04-23T11:15:21.103Z,28.63
2023-04-23T11:16:21.205Z,28.66
2023-04-23T11:17:21.195Z,28.67
2023-04-23T11:18:21.220Z,28.67
2023-04-23T11:19:21.262Z,28.63
2023-04-23T11:20:21.298Z,28.66
2023-04-23T11:21:21.335Z,28.67
2023-04-23T11:22:21.369Z,28.66
2023-04-23T11:23:21.422Z,28.66
2023-04-23T11:24:21.482Z,28.70
2023-04-23T11:25:21.565Z,28.67
2023-04-23T11:26:21.567Z,28.64
2023-04-23T11:27:21.638Z,28.66
2023-04-23T11:28:21.690Z,28.61
2023-04-23T11:29:21.768Z,28.70
2023-04-23T11:30:21.806Z,28.67
2023-04-23T11:31:21.915Z,28.69
2023-04-23T11:32:22.004Z,28.66
2023-04-23T11:33:22.035Z,28.62
2023-04-23T11:34:22.045Z,28.60
2023-04-23T11:35:22.102Z,28.62
2023-04-23T11:36:22.164Z,28.63
2023-04-23T11:37:22.216Z,28.69
2023-04-23T11:38:22.283Z,28.66
2023-04-23T11:39:22.352Z,28.66
2023-04-23T11:40:22.400Z,28.65
2023-04-23T11:41:22.485Z,28.66
2023-04-23T11:42:22.529Z,28.62
2023-04-23T11:43:22.582Z,28.63
2023-04-23T11:44:22.663Z,28.66
2023-04-23T11:45:22.711Z,28.66
2023-04-23T11:46:22.816Z,28.66
2023-04-23T11:47:22.825Z,28.59
2023-04-23T11:48:22.893Z,28.63
2023-04-23T11:49:22.953Z,28.65
2023-04-23T11:50:23.009Z,28.64
2023-04-23T11:51:23.071Z,28.66
2023-04-23T11:52:23.128Z,28.63
2023-04-23T11:53:23.193Z,28.67
2023-04-23T11:54:23.258Z,28.63
2023-04-23T11:55:23.319Z,28.67
2023-04-23T11:56:23.390Z,28.69
2023-04-23T11:57:23.478Z,28.67
2023-04-23T11:58:23.516Z,28.69
2023-04-23T11:59:23.561Z,28.70
2023-04-23T12:00:23.631Z,28.63
2023-04-23T12:01:23.689Z,28.67
2023-04-23T12:02:23.830Z,28.66
2023-04-23T12:03:23.940Z,28.66
2023-04-23T12:04:23.997Z,28.66
2023-04-23T12:05:24.012Z,28.63
2023-04-23T12:06:24.012Z,28.66
2023-04-23T12:07:26.823Z,28.66
2023-04-23T12:08:24.044Z,28.69
2023-04-23T12:09:24.049Z,28.69
2023-04-23T12:10:24.047Z,28.68
2023-04-23T12:11:24.030Z,28.66
2023-04-23T12:12:24.031Z,28.69
2023-04-23T12:13:24.177Z,28.68
2023-04-23T12:14:24.053Z,28.69
2023-04-23T12:15:24.016Z,28.68
2023-04-23T12:16:24.030Z,28.68
2023-04-23T12:17:24.020Z,28.74
2023-04-23T12:18:23.981Z,28.70
2023-04-23T12:19:23.983Z,28.69
2023-04-23T12:20:23.969Z,28.69
2023-04-23T12:21:26.064Z,28.70
2023-04-23T12:22:23.976Z,28.73
2023-04-23T12:23:23.952Z,28.69
2023-04-23T12:24:23.953Z,28.69
2023-04-23T12:25:23.940Z,28.68
2023-04-23T12:26:24.009Z,28.74
2023-04-23T12:27:23.942Z,28.72
2023-04-23T12:28:23.924Z,28.75
2023-04-23T12:29:23.933Z,28.72
2023-04-23T12:30:23.902Z,28.68
2023-04-23T12:31:24.000Z,28.76
2023-04-23T12:32:23.915Z,28.72
2023-04-23T12:33:23.879Z,28.72
2023-04-23T12:34:23.885Z,28.74
2023-04-23T12:35:25.680Z,28.74
2023-04-23T12:36:23.856Z,28.69
2023-04-23T12:37:23.858Z,28.69
2023-04-23T12:38:23.879Z,28.69
2023-04-23T12:39:23.850Z,28.75
2023-04-23T12:40:23.841Z,28.74
2023-04-23T12:41:23.825Z,28.67
2023-04-23T12:42:23.824Z,28.75
2023-04-23T12:43:23.816Z,28.71
2023-04-23T12:44:23.820Z,28.69
2023-04-23T12:45:23.825Z,28.69
2023-04-23T12:46:23.823Z,28.69
2023-04-23T12:47:23.833Z,28.67
2023-04-23T12:48:23.769Z,28.68
2023-04-23T12:49:23.768Z,28.71
2023-04-23T12:50:23.760Z,28.71
2023-04-23T12:51:23.754Z,28.69
2023-04-23T12:52:23.747Z,28.68
2023-04-23T12:53:23.747Z,28.72
2023-04-23T12:54:23.737Z,28.72
2023-04-23T12:55:23.725Z,28.75